createdAt,value
2018-03-31T00:00:51.473Z,870.33
2018-03-31T00:01:51.459Z,870.30
2018-03-31T00:02:51.447Z,870.33
2018-03-31T00:03:51.427Z,870.34
2018-03-31T00:04:51.417Z,870.38
2018-03-31T00:05:51.405Z,870.42
2018-03-31T00:06:51.389Z,870.45
2018-03-31T00:07:51.375Z,870.41
2018-03-31T00:08:51.358Z,870.41
2018-03-31T00:09:51.342Z,870.38
2018-03-31T00:10:51.329Z,870.40
2018-03-31T00:11:51.314Z,870.36
2018-03-31T00:12:51.304Z,870.40
2018-03-31T00:13:51.288Z,870.43
2018-03-31T00:14:51.272Z,870.46
2018-03-31T00:15:51.269Z,870.52
2018-03-31T00:16:51.251Z,870.56
2018-03-31T00:17:51.239Z,870.56
2018-03-31T00:18:51.223Z,870.52
2018-03-31T00:19:51.206Z,870.53
2018-03-31T00:20:51.192Z,870.51
2018-03-31T00:21:51.174Z,870.46
2018-03-31T00:22:51.164Z,870.40
2018-03-31T00:23:51.147Z,870.37
2018-03-31T00:24:51.137Z,870.35
2018-03-31T00:25:51.120Z,870.36
2018-03-31T00:26:51.105Z,870.38
2018-03-31T00:27:51.094Z,870.29
2018-03-31T00:28:51.083Z,870.23
2018-03-31T00:29:51.065Z,870.16
2018-03-31T00:30:51.049Z,870.12
2018-03-31T00:31:51.038Z,870.10
2018-03-31T00:32:51.021Z,870.14
2018-03-31T00:33:51.003Z,870.17
2018-03-31T00:34:50.992Z,870.17
2018-03-31T00:35:50.976Z,870.19
2018-03-31T00:36:50.964Z,870.16
2018-03-31T00:37:50.946Z,870.17
2018-03-31T00:38:50.938Z,870.22
2018-03-31T00:39:50.923Z,870.25
2018-03-31T00:40:50.909Z,870.24
2018-03-31T00:41:50.893Z,870.25
2018-03-31T00:42:50.877Z,870.26
2018-03-31T00:43:50.869Z,870.27
2018-03-31T00:44:50.855Z,870.26
2018-03-31T00:45:50.842Z,870.28
2018-03-31T00:46:50.819Z,870.26
2018-03-31T00:47:50.808Z,870.28
2018-03-31T00:48:50.792Z,870.33
2018-03-31T00:49:50.780Z,870.27
2018-03-31T00:50:50.766Z,870.26
2018-03-31T00:51:50.753Z,870.26
2018-03-31T00:52:50.737Z,870.22
2018-03-31T00:53:50.725Z,870.22
2018-03-31T00:54:50.709Z,870.30
2018-03-31T00:55:50.690Z,870.30
2018-03-31T00:56:50.685Z,870.28
2018-03-31T00:57:50.664Z,870.18
2018-03-31T00:58:50.650Z,870.15
2018-03-31T00:59:50.636Z,870.12
2018-03-31T01:00:50.624Z,870.15
2018-03-31T01:01:50.606Z,870.09
2018-03-31T01:02:50.590Z,870.13
2018-03-31T01:03:50.577Z,870.13
2018-03-31T01:04:50.563Z,870.14
2018-03-31T01:05:50.545Z,870.10
2018-03-31T01:06:50.543Z,870.12
2018-03-31T01:07:50.519Z,870.13
2018-03-31T01:08:50.511Z,870.10
2018-03-31T01:09:50.491Z,870.11
2018-03-31T01:10:50.507Z,870.07
2018-03-31T01:11:50.462Z,870.03
2018-03-31T01:12:50.446Z,870.00
2018-03-31T01:13:50.434Z,870.01
2018-03-31T01:14:50.417Z,870.02
2018-03-31T01:15:50.404Z,869.98
2018-03-31T01:16:50.389Z,869.95
2018-03-31T01:17:50.377Z,869.95
2018-03-31T01:18:50.365Z,869.91
2018-03-31T01:19:50.341Z,869.94
2018-03-31T01:20:50.331Z,870.04
2018-03-31T01:21:50.316Z,870.12
2018-03-31T01:22:50.303Z,870.08
2018-03-31T01:23:50.290Z,869.94
2018-03-31T01:24:50.271Z,869.82
2018-03-31T01:25:50.254Z,869.74
2018-03-31T01:26:50.250Z,869.76
2018-03-31T01:27:50.232Z,869.76
2018-03-31T01:28:50.216Z,869.84
2018-03-31T01:29:50.199Z,869.88
2018-03-31T01:30:50.188Z,869.89
2018-03-31T01:31:50.169Z,869.95
2018-03-31T01:32:50.155Z,869.91
2018-03-31T01:33:50.143Z,869.87
2018-03-31T01:34:50.124Z,869.81
2018-03-31T01:35:50.112Z,869.76
2018-03-31T01:36:50.098Z,869.79
2018-03-31T01:37:50.084Z,869.84
2018-03-31T01:38:50.067Z,869.84
2018-03-31T01:39:50.059Z,869.83
2018-03-31T01:40:50.042Z,869.82
2018-03-31T01:41:50.024Z,869.84
2018-03-31T01:42:50.010Z,869.83
2018-03-31T01:43:49.995Z,869.77
2018-03-31T01:44:49.982Z,869.72
2018-03-31T01:45:49.971Z,869.66
2018-03-31T01:46:49.953Z,869.57
2018-03-31T01:47:49.939Z,869.54
2018-03-31T01:48:49.921Z,869.59
2018-03-31T01:49:49.909Z,869.60
2018-03-31T01:50:49.892Z,869.60
2018-03-31T01:51:49.882Z,869.61
2018-03-31T01:52:49.862Z,869.60
2018-03-31T01:53:49.850Z,869.58
2018-03-31T01:54:49.844Z,869.55
2018-03-31T01:55:49.820Z,869.60
2018-03-31T01:56:49.806Z,869.64
2018-03-31T01:57:49.792Z,869.69
2018-03-31T01:58:49.781Z,869.69
2018-03-31T01:59:49.768Z,869.73
2018-03-31T02:00:49.751Z,869.66
2018-03-31T02:01:49.738Z,869.68
2018-03-31T02:02:49.722Z,869.66
2018-03-31T02:03:49.703Z,869.72
2018-03-31T02:04:49.690Z,869.63
2018-03-31T02:05:49.675Z,869.64
2018-03-31T02:06:49.671Z,869.61
2018-03-31T02:07:49.646Z,869.59
2018-03-31T02:08:49.632Z,869.63
2018-03-31T02:09:49.620Z,869.67
2018-03-31T02:10:49.598Z,869.68
2018-03-31T02:11:49.588Z,869.65
2018-03-31T02:12:49.574Z,869.66
2018-03-31T02:13:49.565Z,869.60
2018-03-31T02:14:49.544Z,869.60
2018-03-31T02:15:49.531Z,869.60
2018-03-31T02:16:49.522Z,869.61
2018-03-31T02:17:49.501Z,869.59
2018-03-31T02:18:49.487Z,869.58
2018-03-31T02:19:49.471Z,869.59
2018-03-31T02:20:49.456Z,869.62
2018-03-31T02:21:49.444Z,869.60
2018-03-31T02:22:49.431Z,869.62
2018-03-31T02:23:49.413Z,869.57
2018-03-31T02:24:49.458Z,869.53
2018-03-31T02:25:49.387Z,869.51
2018-03-31T02:26:49.371Z,869.49
2018-03-31T02:27:49.357Z,869.50
2018-03-31T02:28:49.341Z,869.45
2018-03-31T02:29:49.329Z,869.43
2018-03-31T02:30:49.312Z,869.46
2018-03-31T02:31:49.301Z,869.49
2018-03-31T02:32:49.280Z,869.49
2018-03-31T02:33:49.278Z,869.50
2018-03-31T02:34:49.257Z,869.52
2018-03-31T02:35:49.238Z,869.48
2018-03-31T02:36:49.227Z,869.47
2018-03-31T02:37:49.212Z,869.45
2018-03-31T02:38:49.199Z,869.43
2018-03-31T02:39:49.183Z,869.41
2018-03-31T02:40:49.171Z,869.38
2018-03-31T02:41:49.151Z,869.39
2018-03-31T02:42:49.138Z,869.41
2018-03-31T02:43:49.119Z,869.45
2018-03-31T02:44:49.105Z,869.44
2018-03-31T02:45:49.096Z,869.42
2018-03-31T02:46:49.078Z,869.42
2018-03-31T02:47:49.066Z,869.38
2018-03-31T02:48:49.055Z,869.35
2018-03-31T02:49:49.040Z,869.35
2018-03-31T02:50:49.018Z,869.29
2018-03-31T02:51:49.009Z,869.27
2018-03-31T02:52:48.988Z,869.30
2018-03-31T02:53:48.977Z,869.30
2018-03-31T02:54:48.961Z,869.31
2018-03-31T02:55:48.949Z,869.25
2018-03-31T02:56:48.933Z,869.16
2018-03-31T02:57:48.915Z,869.12
2018-03-31T02:58:48.902Z,869.13
2018-03-31T02:59:48.892Z,869.10
2018-03-31T03:00:48.878Z,869.13
2018-03-31T03:01:48.858Z,869.10
2018-03-31T03:02:48.846Z,869.13
2018-03-31T03:03:48.826Z,869.13
2018-03-31T03:04:48.821Z,869.13
2018-03-31T03:05:48.799Z,869.13
2018-03-31T03:06:48.785Z,869.13
2018-03-31T03:07:48.773Z,869.15
2018-03-31T03:08:48.754Z,869.14
2018-03-31T03:09:48.741Z,869.14
2018-03-31T03:10:48.733Z,869.13
2018-03-31T03:11:48.712Z,869.10
2018-03-31T03:12:48.699Z,869.11
2018-03-31T03:13:48.684Z,869.08
2018-03-31T03:14:48.673Z,869.09
2018-03-31T03:15:48.652Z,869.09
2018-03-31T03:16:48.641Z,869.13
2018-03-31T03:17:48.620Z,869.13
2018-03-31T03:18:48.611Z,869.11
2018-03-31T03:19:48.602Z,869.16
2018-03-31T03:20:48.582Z,869.12
2018-03-31T03:21:48.564Z,869.14
2018-03-31T03:22:48.552Z,869.15
2018-03-31T03:23:48.538Z,869.07
2018-03-31T03:24:48.527Z,869.10
2018-03-31T03:25:48.510Z,869.08
2018-03-31T03:26:48.494Z,869.08
2018-03-31T03:27:48.475Z,869.04
2018-03-31T03:28:48.465Z,869.01
2018-03-31T03:29:48.445Z,869.02
2018-03-31T03:30:48.436Z,868.98
2018-03-31T03:31:48.419Z,868.94
2018-03-31T03:32:48.406Z,868.93
2018-03-31T03:33:48.388Z,868.91
2018-03-31T03:34:48.373Z,868.88
2018-03-31T03:35:48.359Z,868.83
2018-03-31T03:36:48.344Z,868.83
2018-03-31T03:37:48.331Z,868.78
2018-03-31T03:38:48.316Z,868.78
2018-03-31T03:39:48.312Z,868.83
2018-03-31T03:40:48.292Z,868.83
2018-03-31T03:41:48.268Z,868.81
2018-03-31T03:42:48.257Z,868.81
2018-03-31T03:43:48.244Z,868.80
2018-03-31T03:44:48.230Z,868.77
2018-03-31T03:45:48.212Z,868.78
2018-03-31T03:46:48.196Z,868.78
2018-03-31T03:47:48.187Z,868.76
2018-03-31T03:48:48.171Z,868.74
2018-03-31T03:49:48.155Z,868.74
2018-03-31T03:50:48.139Z,868.75
2018-03-31T03:51:48.124Z,868.77
2018-03-31T03:52:48.114Z,868.75
2018-03-31T03:53:48.094Z,868.78
2018-03-31T03:54:48.084Z,868.81
2018-03-31T03:55:48.067Z,868.78
2018-03-31T03:56:48.056Z,868.81
2018-03-31T03:57:48.037Z,868.82
2018-03-31T03:58:48.020Z,868.77
2018-03-31T03:59:48.010Z,868.79
2018-03-31T04:00:47.990Z,868.76
2018-03-31T04:01:47.978Z,868.69
2018-03-31T04:02:47.965Z,868.67
2018-03-31T04:03:47.946Z,868.71
2018-03-31T04:04:47.930Z,868.69
2018-03-31T04:05:47.927Z,868.75
2018-03-31T04:06:47.905Z,868.78
2018-03-31T04:07:47.884Z,868.84
2018-03-31T04:08:47.877Z,868.82
2018-03-31T04:09:47.854Z,868.77
2018-03-31T04:10:47.844Z,868.75
2018-03-31T04:11:47.828Z,868.73
2018-03-31T04:12:47.808Z,868.71
2018-03-31T04:13:47.800Z,868.70
2018-03-31T04:14:47.787Z,868.73
2018-03-31T04:15:47.774Z,868.75
2018-03-31T04:16:47.752Z,868.76
2018-03-31T04:17:47.740Z,868.75
2018-03-31T04:18:47.722Z,868.79
2018-03-31T04:19:47.708Z,868.78
2018-03-31T04:20:47.698Z,868.80
2018-03-31T04:21:47.685Z,868.76
2018-03-31T04:22:47.667Z,868.73
2018-03-31T04:23:47.652Z,868.76
2018-03-31T04:24:47.640Z,868.67
2018-03-31T04:25:47.625Z,868.69
2018-03-31T04:26:47.618Z,868.61
2018-03-31T04:27:47.595Z,868.62
2018-03-31T04:28:47.575Z,868.58
2018-03-31T04:29:47.577Z,868.62
2018-03-31T04:30:47.547Z,868.60
2018-03-31T04:31:47.530Z,868.57
2018-03-31T04:32:47.514Z,868.60
2018-03-31T04:33:47.502Z,868.63
2018-03-31T04:34:47.486Z,868.57
2018-03-31T04:35:47.477Z,868.58
2018-03-31T04:36:47.459Z,868.59
2018-03-31T04:37:47.444Z,868.58
2018-03-31T04:38:47.434Z,868.59
2018-03-31T04:39:47.414Z,868.58
2018-03-31T04:40:47.402Z,868.63
2018-03-31T04:41:47.381Z,868.61
2018-03-31T04:42:47.368Z,868.64
2018-03-31T04:43:47.356Z,868.62
2018-03-31T04:44:47.341Z,868.64
2018-03-31T04:45:47.325Z,868.67
2018-03-31T04:46:47.308Z,868.67
2018-03-31T04:47:47.294Z,868.67
2018-03-31T04:48:47.279Z,868.70
2018-03-31T04:49:47.264Z,868.69
2018-03-31T04:50:47.252Z,868.74
2018-03-31T04:51:47.233Z,868.72
2018-03-31T04:52:47.219Z,868.77
2018-03-31T04:53:47.210Z,868.75
2018-03-31T04:54:47.195Z,868.74
2018-03-31T04:55:47.177Z,868.76
2018-03-31T04:56:47.158Z,868.77
2018-03-31T04:57:47.145Z,868.74
2018-03-31T04:58:47.130Z,868.74
2018-03-31T04:59:47.121Z,868.73
2018-03-31T05:00:47.101Z,868.73
2018-03-31T05:01:47.085Z,868.75
2018-03-31T05:02:47.074Z,868.78
2018-03-31T05:03:47.063Z,868.77
2018-03-31T05:04:47.047Z,868.77
2018-03-31T05:05:47.028Z,868.77
2018-03-31T05:06:47.012Z,868.73
2018-03-31T05:07:47.001Z,868.75
2018-03-31T05:08:46.994Z,868.77
2018-03-31T05:09:46.971Z,868.76
2018-03-31T05:10:46.956Z,868.79
2018-03-31T05:11:46.940Z,868.83
2018-03-31T05:12:46.920Z,868.86
2018-03-31T05:13:46.908Z,868.88
2018-03-31T05:14:46.898Z,868.86
2018-03-31T05:15:46.878Z,868.92
2018-03-31T05:16:46.866Z,868.91
2018-03-31T05:17:46.848Z,868.95
2018-03-31T05:18:46.837Z,868.94
2018-03-31T05:19:46.819Z,868.94
2018-03-31T05:20:46.803Z,868.98
2018-03-31T05:21:46.792Z,868.94
2018-03-31T05:22:46.783Z,868.93
2018-03-31T05:23:46.762Z,868.96
2018-03-31T05:24:46.740Z,868.92
2018-03-31T05:25:46.731Z,868.91
2018-03-31T05:26:46.717Z,868.87
2018-03-31T05:27:46.706Z,868.85
2018-03-31T05:28:46.688Z,868.79
2018-03-31T05:29:46.676Z,868.73
2018-03-31T05:30:46.654Z,868.72
2018-03-31T05:31:46.649Z,868.71
2018-03-31T05:32:46.628Z,868.69
2018-03-31T05:33:46.614Z,868.67
2018-03-31T05:34:46.598Z,868.70
2018-03-31T05:35:46.588Z,868.68
2018-03-31T05:36:46.566Z,868.74
2018-03-31T05:37:46.545Z,868.68
2018-03-31T05:38:46.542Z,868.66
2018-03-31T05:39:46.521Z,868.61
2018-03-31T05:40:46.507Z,868.61
2018-03-31T05:41:46.493Z,868.63
2018-03-31T05:42:46.476Z,868.61
2018-03-31T05:43:46.464Z,868.59
2018-03-31T05:44:46.448Z,868.58
2018-03-31T05:45:46.435Z,868.60
2018-03-31T05:46:46.415Z,868.62
2018-03-31T05:47:46.401Z,868.63
2018-03-31T05:48:46.386Z,868.63
2018-03-31T05:49:46.374Z,868.66
2018-03-31T05:50:46.360Z,868.63
2018-03-31T05:51:46.343Z,868.61
2018-03-31T05:52:46.328Z,868.58
2018-03-31T05:53:46.314Z,868.58
2018-03-31T05:54:46.304Z,868.59
2018-03-31T05:55:46.285Z,868.58
2018-03-31T05:56:46.277Z,868.56
2018-03-31T05:57:46.260Z,868.57
2018-03-31T05:58:46.256Z,868.62
2018-03-31T05:59:46.226Z,868.57
2018-03-31T06:00:46.212Z,868.58
2018-03-31T06:01:46.192Z,868.55
2018-03-31T06:02:46.184Z,868.58
2018-03-31T06:03:46.163Z,868.55
2018-03-31T06:04:46.152Z,868.55
2018-03-31T06:05:46.138Z,868.56
2018-03-31T06:06:46.124Z,868.56
2018-03-31T06:07:46.104Z,868.61
2018-03-31T06:08:46.089Z,868.60
2018-03-31T06:09:46.075Z,868.60
2018-03-31T06:10:46.071Z,868.62
2018-03-31T06:11:46.056Z,868.60
2018-03-31T06:12:46.032Z,868.60
2018-03-31T06:13:46.016Z,868.62
2018-03-31T06:14:46.002Z,868.60
2018-03-31T06:15:45.988Z,868.59
2018-03-31T06:16:45.977Z,868.59
2018-03-31T06:17:45.965Z,868.59
2018-03-31T06:18:45.942Z,868.57
2018-03-31T06:19:45.928Z,868.59
2018-03-31T06:20:45.924Z,868.59
2018-03-31T06:21:45.896Z,868.59
2018-03-31T06:22:45.890Z,868.60
2018-03-31T06:23:45.873Z,868.61
2018-03-31T06:24:45.854Z,868.61
2018-03-31T06:25:45.849Z,868.60
2018-03-31T06:26:45.826Z,868.61
2018-03-31T06:27:45.812Z,868.64
2018-03-31T06:28:45.802Z,868.66
2018-03-31T06:29:45.788Z,868.63
2018-03-31T06:30:45.779Z,868.57
2018-03-31T06:31:45.753Z,868.58
2018-03-31T06:32:45.739Z,868.56
2018-03-31T06:33:45.731Z,868.53
2018-03-31T06:34:45.711Z,868.51
2018-03-31T06:35:45.699Z,868.48
2018-03-31T06:36:45.683Z,868.50
2018-03-31T06:37:45.669Z,868.52
2018-03-31T06:38:45.654Z,868.52
2018-03-31T06:39:45.641Z,868.51
2018-03-31T06:40:45.628Z,868.55
2018-03-31T06:41:45.613Z,868.53
2018-03-31T06:42:45.600Z,868.53
2018-03-31T06:43:45.590Z,868.55
2018-03-31T06:44:45.567Z,868.55
2018-03-31T06:45:45.563Z,868.56
2018-03-31T06:46:45.601Z,868.54
2018-03-31T06:47:45.525Z,868.55
2018-03-31T06:48:45.511Z,868.57
2018-03-31T06:49:45.504Z,868.56
2018-03-31T06:50:45.487Z,868.54
2018-03-31T06:51:45.469Z,868.53
2018-03-31T06:52:45.501Z,868.57
2018-03-31T06:53:45.442Z,868.58
2018-03-31T06:54:45.433Z,868.58
2018-03-31T06:55:45.419Z,868.55
2018-03-31T06:56:45.401Z,868.54
2018-03-31T06:57:45.389Z,868.59
2018-03-31T06:58:45.371Z,868.60
2018-03-31T06:59:45.359Z,868.61
2018-03-31T07:00:45.349Z,868.60
2018-03-31T07:01:45.331Z,868.63
2018-03-31T07:02:45.319Z,868.60
2018-03-31T07:03:45.308Z,868.62
2018-03-31T07:04:45.292Z,868.59
2018-03-31T07:05:45.276Z,868.58
2018-03-31T07:06:45.262Z,868.59
2018-03-31T07:07:45.250Z,868.59
2018-03-31T07:08:45.232Z,868.60
2018-03-31T07:09:45.220Z,868.63
2018-03-31T07:10:45.210Z,868.57
2018-03-31T07:11:45.209Z,868.58
2018-03-31T07:12:45.179Z,868.58
2018-03-31T07:13:45.169Z,868.60
2018-03-31T07:14:45.153Z,868.59
2018-03-31T07:15:45.147Z,868.59
2018-03-31T07:16:45.125Z,868.61
2018-03-31T07:17:45.115Z,868.63
2018-03-31T07:18:45.099Z,868.62
2018-03-31T07:19:45.089Z,868.63
2018-03-31T07:20:45.070Z,868.62
2018-03-31T07:21:45.068Z,868.60
2018-03-31T07:22:45.044Z,868.59
2018-03-31T07:23:45.035Z,868.56
2018-03-31T07:24:45.017Z,868.58
2018-03-31T07:25:45.002Z,868.56
2018-03-31T07:26:44.990Z,868.51
2018-03-31T07:27:44.975Z,868.53
2018-03-31T07:28:44.967Z,868.55
2018-03-31T07:29:44.949Z,868.56
2018-03-31T07:30:44.941Z,868.62
2018-03-31T07:31:44.925Z,868.62
2018-03-31T07:32:44.915Z,868.64
2018-03-31T07:33:44.897Z,868.61
2018-03-31T07:34:44.888Z,868.65
2018-03-31T07:35:44.872Z,868.62
2018-03-31T07:36:44.856Z,868.65
2018-03-31T07:37:44.843Z,868.63
2018-03-31T07:38:44.828Z,868.66
2018-03-31T07:39:44.811Z,868.65
2018-03-31T07:40:44.819Z,868.66
2018-03-31T07:41:44.787Z,868.69
2018-03-31T07:42:44.769Z,868.66
2018-03-31T07:43:44.756Z,868.66
2018-03-31T07:44:44.742Z,868.65
2018-03-31T07:45:44.731Z,868.69
2018-03-31T07:46:44.720Z,868.71
2018-03-31T07:47:44.704Z,868.74
2018-03-31T07:48:44.689Z,868.70
2018-03-31T07:49:44.675Z,868.73
2018-03-31T07:50:44.665Z,868.74
2018-03-31T07:51:44.652Z,868.72
2018-03-31T07:52:44.632Z,868.73
2018-03-31T07:53:44.620Z,868.70
2018-03-31T07:54:44.610Z,868.71
2018-03-31T07:55:44.596Z,868.77
2018-03-31T07:56:44.580Z,868.72
2018-03-31T07:57:44.570Z,868.75
2018-03-31T07:58:44.556Z,868.73
2018-03-31T07:59:44.547Z,868.74
2018-03-31T08:00:44.529Z,868.78
2018-03-31T08:01:44.513Z,868.72
2018-03-31T08:02:44.503Z,868.77
2018-03-31T08:03:44.489Z,868.80
2018-03-31T08:04:44.475Z,868.80
2018-03-31T08:05:44.461Z,868.77
2018-03-31T08:06:44.449Z,868.74
2018-03-31T08:07:44.441Z,868.74
2018-03-31T08:08:44.420Z,868.72
2018-03-31T08:09:44.409Z,868.71
2018-03-31T08:10:44.396Z,868.68
2018-03-31T08:11:44.383Z,868.68
2018-03-31T08:12:44.362Z,868.69
2018-03-31T08:13:44.352Z,868.69
2018-03-31T08:14:44.338Z,868.72
2018-03-31T08:15:44.328Z,868.68
2018-03-31T08:16:44.383Z,868.67
2018-03-31T08:17:44.358Z,868.66
2018-03-31T08:18:44.287Z,868.68
2018-03-31T08:19:44.277Z,868.62
2018-03-31T08:20:44.266Z,868.66
2018-03-31T08:21:44.245Z,868.65
2018-03-31T08:22:44.235Z,868.62
2018-03-31T08:23:44.217Z,868.62
2018-03-31T08:24:44.207Z,868.60
2018-03-31T08:25:44.196Z,868.61
2018-03-31T08:26:44.184Z,868.61
2018-03-31T08:27:44.168Z,868.61
2018-03-31T08:28:44.152Z,868.60
2018-03-31T08:29:44.134Z,868.61
2018-03-31T08:30:44.126Z,868.60
2018-03-31T08:31:44.117Z,868.60
2018-03-31T08:32:44.099Z,868.59
2018-03-31T08:33:44.087Z,868.57
2018-03-31T08:34:44.073Z,868.59
2018-03-31T08:35:44.061Z,868.55
2018-03-31T08:36:44.047Z,868.50
2018-03-31T08:37:44.031Z,868.52
2018-03-31T08:38:44.025Z,868.46
2018-03-31T08:39:44.009Z,868.48
2018-03-31T08:40:43.995Z,868.46
2018-03-31T08:41:44.001Z,868.50
2018-03-31T08:42:43.971Z,868.53
2018-03-31T08:43:43.959Z,868.53
2018-03-31T08:44:43.951Z,868.54
2018-03-31T08:45:43.931Z,868.52
2018-03-31T08:46:43.918Z,868.50
2018-03-31T08:47:43.897Z,868.53
2018-03-31T08:48:43.889Z,868.51
2018-03-31T08:49:43.875Z,868.51
2018-03-31T08:50:43.865Z,868.45
2018-03-31T08:51:43.853Z,868.43
2018-03-31T08:52:43.834Z,868.44
2018-03-31T08:53:43.824Z,868.46
2018-03-31T08:54:43.812Z,868.43
2018-03-31T08:55:43.803Z,868.42
2018-03-31T08:56:43.790Z,868.46
2018-03-31T08:57:43.775Z,868.45
2018-03-31T08:58:43.759Z,868.48
2018-03-31T08:59:43.745Z,868.47
2018-03-31T09:00:43.735Z,868.47
2018-03-31T09:01:43.721Z,868.40
2018-03-31T09:02:43.711Z,868.40
2018-03-31T09:03:43.782Z,868.40
2018-03-31T09:04:43.680Z,868.39
2018-03-31T09:05:43.668Z,868.38
2018-03-31T09:06:43.659Z,868.39
2018-03-31T09:07:43.640Z,868.34
2018-03-31T09:08:43.628Z,868.34
2018-03-31T09:09:43.618Z,868.36
2018-03-31T09:10:43.604Z,868.36
2018-03-31T09:11:43.598Z,868.39
2018-03-31T09:12:43.585Z,868.37
2018-03-31T09:13:43.563Z,868.37
2018-03-31T09:14:43.556Z,868.36
2018-03-31T09:15:43.541Z,868.35
2018-03-31T09:16:43.593Z,868.37
2018-03-31T09:17:43.517Z,868.36
2018-03-31T09:18:43.505Z,868.40
2018-03-31T09:19:43.493Z,868.42
2018-03-31T09:20:43.478Z,868.45
2018-03-31T09:21:43.466Z,868.46
2018-03-31T09:22:45.782Z,868.48
2018-03-31T09:23:43.443Z,868.46
2018-03-31T09:24:44.450Z,868.50
2018-03-31T09:25:43.415Z,868.43
2018-03-31T09:26:43.404Z,868.46
2018-03-31T09:27:43.390Z,868.46
2018-03-31T09:28:43.377Z,868.41
2018-03-31T09:29:43.360Z,868.40
2018-03-31T09:30:43.343Z,868.35
2018-03-31T09:31:43.341Z,868.35
2018-03-31T09:32:43.328Z,868.37
2018-03-31T09:33:43.315Z,868.32
2018-03-31T09:34:43.297Z,868.33
2018-03-31T09:35:43.287Z,868.37
2018-03-31T09:36:43.275Z,868.30
2018-03-31T09:37:43.261Z,868.27
2018-03-31T09:38:43.249Z,868.23
2018-03-31T09:39:43.243Z,868.22
2018-03-31T09:40:43.225Z,868.22
2018-03-31T09:41:43.214Z,868.27
2018-03-31T09:42:43.197Z,868.29
2018-03-31T09:43:43.187Z,868.27
2018-03-31T09:44:43.170Z,868.28
2018-03-31T09:45:43.162Z,868.29
2018-03-31T09:46:43.240Z,868.30
2018-03-31T09:47:43.136Z,868.34
2018-03-31T09:48:43.121Z,868.31
2018-03-31T09:49:43.111Z,868.34
2018-03-31T09:50:43.101Z,868.37
2018-03-31T09:51:43.090Z,868.36
2018-03-31T09:52:43.081Z,868.40
2018-03-31T09:53:43.061Z,868.34
2018-03-31T09:54:43.051Z,868.40
2018-03-31T09:55:43.042Z,868.37
2018-03-31T09:56:43.028Z,868.43
2018-03-31T09:57:43.016Z,868.45
2018-03-31T09:58:43.006Z,868.49
2018-03-31T09:59:42.989Z,868.49
2018-03-31T10:00:42.978Z,868.52
2018-03-31T10:01:42.967Z,868.53
2018-03-31T10:02:42.953Z,868.55
2018-03-31T10:03:42.939Z,868.55
2018-03-31T10:04:42.929Z,868.54
2018-03-31T10:05:42.914Z,868.54
2018-03-31T10:06:42.905Z,868.55
2018-03-31T10:07:42.893Z,868.55
2018-03-31T10:08:42.877Z,868.54
2018-03-31T10:09:42.862Z,868.48
2018-03-31T10:10:42.854Z,868.46
2018-03-31T10:11:42.845Z,868.49
2018-03-31T10:12:42.833Z,868.49
2018-03-31T10:13:42.816Z,868.50
2018-03-31T10:14:42.805Z,868.53
2018-03-31T10:15:42.795Z,868.53
2018-03-31T10:16:42.780Z,868.48
2018-03-31T10:17:42.765Z,868.53
2018-03-31T10:18:42.755Z,868.52
2018-03-31T10:19:42.743Z,868.52
2018-03-31T10:20:42.730Z,868.52
2018-03-31T10:21:42.717Z,868.50
2018-03-31T10:22:42.711Z,868.51
2018-03-31T10:23:42.704Z,868.52
2018-03-31T10:24:42.683Z,868.47
2018-03-31T10:25:42.682Z,868.50
2018-03-31T10:26:42.656Z,868.50
2018-03-31T10:27:42.649Z,868.53
2018-03-31T10:28:42.635Z,868.51
2018-03-31T10:29:42.627Z,868.55
2018-03-31T10:30:42.612Z,868.55
2018-03-31T10:31:42.600Z,868.54
2018-03-31T10:32:42.586Z,868.52
2018-03-31T10:33:42.572Z,868.51
2018-03-31T10:34:42.571Z,868.56
2018-03-31T10:35:42.553Z,868.57
2018-03-31T10:36:42.537Z,868.54
2018-03-31T10:37:42.523Z,868.55
2018-03-31T10:38:42.514Z,868.56
2018-03-31T10:39:42.501Z,868.54
2018-03-31T10:40:42.493Z,868.56
2018-03-31T10:41:42.485Z,868.54
2018-03-31T10:42:42.516Z,868.58
2018-03-31T10:43:42.458Z,868.54
2018-03-31T10:44:42.443Z,868.55
2018-03-31T10:45:42.431Z,868.56
2018-03-31T10:46:42.430Z,868.54
2018-03-31T10:47:42.406Z,868.59
2018-03-31T10:48:42.394Z,868.56
2018-03-31T10:49:42.384Z,868.57
2018-03-31T10:50:42.371Z,868.61
2018-03-31T10:51:42.356Z,868.58
2018-03-31T10:52:42.348Z,868.51
2018-03-31T10:53:42.334Z,868.52
2018-03-31T10:54:42.327Z,868.51
2018-03-31T10:55:42.314Z,868.49
2018-03-31T10:56:42.301Z,868.50
2018-03-31T10:57:42.289Z,868.48
2018-03-31T10:58:42.275Z,868.47
2018-03-31T10:59:42.264Z,868.48
2018-03-31T11:00:42.256Z,868.49
2018-03-31T11:01:42.246Z,868.48
2018-03-31T11:02:42.233Z,868.48
2018-03-31T11:03:42.223Z,868.50
2018-03-31T11:04:42.208Z,868.49
2018-03-31T11:05:42.198Z,868.49
2018-03-31T11:06:42.202Z,868.51
2018-03-31T11:07:42.172Z,868.46
2018-03-31T11:08:42.160Z,868.50
2018-03-31T11:09:42.146Z,868.50
2018-03-31T11:10:42.134Z,868.48
2018-03-31T11:11:42.145Z,868.47
2018-03-31T11:12:42.111Z,868.46
2018-03-31T11:13:42.094Z,868.48
2018-03-31T11:14:42.088Z,868.45
2018-03-31T11:15:42.074Z,868.46
2018-03-31T11:16:42.065Z,868.40
2018-03-31T11:17:42.051Z,868.42
2018-03-31T11:18:42.043Z,868.46
2018-03-31T11:19:42.026Z,868.42
2018-03-31T11:20:42.022Z,868.42
2018-03-31T11:21:42.009Z,868.45
2018-03-31T11:22:42.000Z,868.43
2018-03-31T11:23:41.989Z,868.42
2018-03-31T11:24:41.971Z,868.38
2018-03-31T11:25:41.969Z,868.40
2018-03-31T11:26:41.958Z,868.39
2018-03-31T11:27:41.937Z,868.44
2018-03-31T11:28:41.922Z,868.45
2018-03-31T11:29:41.914Z,868.45
2018-03-31T11:30:41.896Z,868.44
2018-03-31T11:31:41.890Z,868.45
2018-03-31T11:32:41.881Z,868.44
2018-03-31T11:33:41.863Z,868.43
2018-03-31T11:34:41.855Z,868.42
2018-03-31T11:35:41.847Z,868.42
2018-03-31T11:36:41.830Z,868.39
2018-03-31T11:37:41.815Z,868.41
2018-03-31T11:38:41.808Z,868.44
2018-03-31T11:39:41.791Z,868.43
2018-03-31T11:40:41.781Z,868.41
2018-03-31T11:41:41.772Z,868.37
2018-03-31T11:42:41.760Z,868.38
2018-03-31T11:43:41.750Z,868.41
2018-03-31T11:44:41.732Z,868.38
2018-03-31T11:45:41.728Z,868.37
2018-03-31T11:46:41.715Z,868.38
2018-03-31T11:47:41.699Z,868.38
2018-03-31T11:48:41.690Z,868.36
2018-03-31T11:49:41.673Z,868.35
2018-03-31T11:50:41.666Z,868.37
2018-03-31T11:51:41.654Z,868.35
2018-03-31T11:52:41.638Z,868.35
2018-03-31T11:53:41.630Z,868.36
2018-03-31T11:54:41.618Z,868.34
2018-03-31T11:55:41.609Z,868.31
2018-03-31T11:56:41.598Z,868.30
2018-03-31T11:57:41.579Z,868.35
2018-03-31T11:58:41.569Z,868.34
2018-03-31T11:59:41.558Z,868.33
2018-03-31T12:00:41.542Z,868.35
2018-03-31T12:01:41.534Z,868.32
2018-03-31T12:02:41.522Z,868.31
2018-03-31T12:03:41.513Z,868.31
2018-03-31T12:04:41.505Z,868.29
2018-03-31T12:05:41.484Z,868.27
2018-03-31T12:06:41.476Z,868.28
2018-03-31T12:07:41.463Z,868.26
2018-03-31T12:08:41.450Z,868.22
2018-03-31T12:09:41.438Z,868.25
2018-03-31T12:10:41.431Z,868.23
2018-03-31T12:11:41.415Z,868.22
2018-03-31T12:12:41.408Z,868.24
2018-03-31T12:13:41.391Z,868.25
2018-03-31T12:14:41.386Z,868.25
2018-03-31T12:15:41.368Z,868.19
2018-03-31T12:16:41.358Z,868.20
2018-03-31T12:17:41.346Z,868.20
2018-03-31T12:18:41.334Z,868.17
2018-03-31T12:19:41.323Z,868.20
2018-03-31T12:20:41.316Z,868.18
2018-03-31T12:21:41.296Z,868.17
2018-03-31T12:22:41.288Z,868.20
2018-03-31T12:23:41.273Z,868.16
2018-03-31T12:24:41.263Z,868.17
2018-03-31T12:25:41.248Z,868.21
2018-03-31T12:26:41.239Z,868.19
2018-03-31T12:27:41.223Z,868.20
2018-03-31T12:28:41.213Z,868.21